DAAG/ALG METAR and TAF weather

Enter ICAO airport designator
Station Type Date Time Source
DAAG METAR 2018/04/19 13:00 UTC NOAA

DAAG 191300Z 04013KT 9999 FEW020TCU FEW026CB 19/15 Q1021


Station Type Date Time Source
DAAG Decoded METAR 2018/04/19 13:00 UTC NOAA

Dar-El-Beida, Algeria (DAAG) 36-43N 003-15E 25M
Apr 19, 2018 - 09:00 AM EDT / 2018.04.19 1300 UTC
Wind: from the NE (040 degrees) at 15 MPH (13 KT):0
Visibility: greater than 7 mile(s):0
Sky conditions: mostly clear
Weather: Cumulonimbus clouds, towering cumulus clouds observed
Temperature: 66 F (19 C)
Dew Point: 59 F (15 C)
Relative Humidity: 77%
Pressure (altimeter): 30.15 in. Hg (1021 hPa)
ob: DAAG 191300Z 04013KT 9999 FEW020TCU FEW026CB 19/15 Q1021
cycle: 13

Station Type Date Time Source
DAAG TAF 2018/04/19 12:33 UTC NOAA

TAF TAF DAAG 191100Z 1912/2012 04012KT 9999 FEW020 PROB40
TEMPO 1912/1918 FEW023TCU
BECMG 1917/1920 VRB02KT
TEMPO 2000/2007 3000 BR BKN015 PROB40 2001/2006 0600 FG BKN008


Example: see airport list